Forside
METAR-TAF:

METAR-TAF

Lufthavne :

Fairfield Municipal Airport

Fairfield, Iowa, USA

Breddekreds: 41-03N, længdekreds: 091-59W, højde: 244 m

Aktuelle vejr

Denne rapport blev lavet for 19 minutter siden, kl. 12:35 UTC
Vind 15 kt fra sydøst
Temperatur 2°C
Fugtighed 100%
Tryk 1017 hPa
Sigt: 2.4 km
Overskyet i en højde af 400 ft
dis

METAR: KFFL 241235Z AUTO 13015KT 1 1/2SM BR OVC004 02/02 A3002 RMK A01

Tid: 06:54 (12:54 UTC)


TAF: fraværende

Vejrobservationer og prognoser fra mere end 4000 lufthavne (METAR og TAF).

De gule og røde prikker repræsenterer de meteorologiske stationer.

Flyt musen over at se navnet på stationen.

Så klik over at se vejr observationer og prognoser.

At skifte det kort: Klik på de grønne knapper med et sort kors for at zoome ind; på den grønne knap med en bindestreg for at zoome ud; eller på de grønne pile for tilstødende kort.


METAR-TAF: